CheckWX is a tool to help pilots better visualize weather data.  It is not intended as a substitute for an official pre-flight weather briefing.

06:14:49 UTC

YBCG TAF
Gold Coast Airport
Gold Coast, Australia
TAF YBCG 031107Z 0312/0412 33010KT 9999 SCT020 FM032300 35014KT 9999 SCT030 FM040300 34014KT 9999 -SHRA SCT035 BKN100 PROB30 TEMPO 0404/0411 VRB25G40KT 1500 TSRA BKN010 SCT035CB

Apr-3@
12:00 UTC

Apr-3 @ 12:00 UTC

Apr-3@
23:00 UTC

Apr-3 @ 23:00 UTC

TAF YBCG 031107Z 0312/0412 33010KT 9999 SCT020

Expired

Wind
  • 330° at 10 KTS
Cloud Levels
  • Scattered at 2,000' AGL

Apr-3@
23:00 UTC

Apr-3 @ 23:00 UTC

Apr-4@
03:00 UTC

Apr-4 @ 03:00 UTC

FM032300 35014KT 9999 SCT030

Expired

Wind
  • 350° at 14 KTS
Cloud Levels
  • Scattered at 3,000' AGL

Apr-4@
03:00 UTC

Apr-4 @ 03:00 UTC

Apr-4@
12:00 UTC

Apr-4 @ 12:00 UTC

FM040300 34014KT 9999 -SHRA SCT035 BKN100

From

From Standard forecast or significant change

Wind
  • 340° at 14 KTS
Conditions
Light Showers, Rain
Cloud Levels
  • Scattered at 3,500' AGL
  • Broken at 10,000' AGL

Apr-4@
04:00 UTC

Apr-4 @ 04:00 UTC

Apr-4@
11:00 UTC

Apr-4 @ 11:00 UTC

PROB30 TEMPO 0404/0411 VRB25G40KT 1500 TSRA BKN010 SCT035CB

Temporary - 30% Likelihood

Temporary - 30% Likelihood during this time.

Wind
  • Variable at 25 KTS
  • {Gusting to 40 KTS
Conditions
Thunderstorm, Rain
Cloud Levels
  • Broken at 1,000' AGL
  • Scattered at 3,500' AGL